Latest Coastal Weather Observations for Pirlangimpi (Garden Point)

IDD60701

Issued at 8:01 pm CST Sunday 28 August 2016 (issued every 10 minutes, with the page automatically refreshed every 10 minutes)

About coastal observations | Map of coastal stations | Coastal observations for NT | Marine services | Other Formats
Station Details ID: 014142 Name: PIRLANGIMPI AIRPORT Lat: -11.40 Lon: 130.42 Height: 18.3 m
Data from the previous 72 hours. | See also: Recent months at Pirlangimpi (Garden Point)
Date/Time
CST
Temp
°C
Wind Pressure Rain since
9am
mm
Weather Cloud Vis
km
Sea
Height
m
Swell
Dir  Spd
kts
Gust
kts
hPa Trend Height
m
Period
s
Dir
28/08:00pm 24.8 NE 3 5 1011.9 - 0.0 - - - - - - -
28/07:30pm 25.3 NE 2 5 1011.7 - 0.0 - - - - - - -
28/07:00pm 26.1 NE 4 7 1011.4 - 0.0 - - - - - - -
28/06:30pm 27.2 NE 4 7 1011.2 - 0.0 - - - - - - -
28/06:00pm 28.3 NE 6 10 1011.0 - 0.0 - - - - - - -
28/05:30pm 29.3 NE 8 15 1011.0 - 0.0 - - - - - - -
28/05:00pm 30.5 NE 8 17 1010.8 - 0.0 - - - - - - -
28/04:30pm 31.1 NE 7 13 1010.6 - 0.0 - - - - - - -
28/04:00pm 31.2 NNE 7 12 1010.7 - 0.0 - - - - - - -
28/03:30pm 32.4 NE 7 15 1010.9 - 0.0 - - - - - - -
28/03:00pm 31.3 NE 8 14 1011.3 - 0.0 - - - - - - -
28/02:30pm 32.8 ENE 9 14 1011.7 - 0.0 - - - - - - -
28/02:00pm 31.8 ENE 8 14 1012.1 - 0.0 - - - - - - -
28/01:30pm 31.9 ENE 9 13 1012.4 - 0.0 - - - - - - -
28/01:00pm 31.8 NE 7 14 1012.8 - 0.0 - - - - - - -
28/12:30pm 31.1 E 9 14 1013.5 - 0.0 - - - - - - -
28/12:00pm 31.2 ENE 9 15 1014.1 - 0.0 - - - - - - -
28/11:30am 30.3 ENE 10 18 1014.6 - 0.0 - - - - - - -
28/11:00am 30.0 ENE 11 18 1015.3 - 0.0 - - - - - - -
28/10:30am 29.1 ENE 10 17 1015.6 - 0.0 - - - - - - -
28/10:00am 28.8 ENE 12 19 1015.8 - 0.0 - - - - - - -
28/09:30am 27.2 ENE 10 18 1016.0 - 0.0 - - - - - - -
28/09:00am 26.5 E 8 13 1015.9 - 0.0 - - - - - - -
28/08:30am 25.1 E 4 7 1015.7 - 0.0 - - - - - - -
28/08:00am 22.2 SSE 1 2 1015.4 - 0.0 - - - - - - -
28/07:30am 20.6 S 1 3 1015.4 - 0.0 - - - - - - -
28/07:00am 20.0 ESE 1 2 1015.0 - 0.0 - - - - - - -
28/06:30am 20.7 E 3 4 1014.5 - 0.0 - - - - - - -
28/06:00am 20.1 ESE 2 2 1014.3 - 0.0 - - - - - - -
28/05:30am 20.6 CALM 0 1 1014.1 - 0.0 - - - - - - -
28/05:00am 20.8 ESE 2 4 1013.9 - 0.0 - - - - - - -
28/04:30am 20.3 SE 3 4 1013.7 - 0.0 - - - - - - -
28/04:00am 20.4 CALM 0 0 1013.6 - 0.0 - - - - - - -
28/03:30am 20.5 CALM 0 0 1013.7 - 0.0 - - - - - - -
28/03:00am 20.3 CALM 0 0 1013.7 - 0.0 - - - - - - -
28/02:30am 20.5 CALM 0 0 1013.8 - 0.0 - - - - - - -
28/02:00am 21.2 NE 1 2 1014.0 - 0.0 - - - - - - -
28/01:30am 21.4 N 1 3 1014.3 - 0.0 - - - - - - -
28/01:00am 21.2 NNE 1 3 1014.5 - 0.0 - - - - - - -
28/12:30am 21.4 NNE 1 2 1014.7 - 0.0 - - - - - - -
28/12:00am 21.4 CALM 0 0 1015.1 - 0.0 - - - - - - -
 
Date/Time
CST
Temp
°C
Wind Pressure Rain since
9am
mm
Weather Cloud Vis
km
Sea
Height
m
Swell
Dir  Spd
kts
Gust
kts
hPa Trend Height
m
Period
s
Dir
27/11:30pm 21.9 CALM 0 0 1015.0 - 0.0 - - - - - - -
27/11:00pm 22.3 CALM 0 0 1014.9 - 0.0 - - - - - - -
27/10:30pm 22.5 CALM 0 0 1014.8 - 0.0 - - - - - - -
27/10:00pm 22.8 CALM 0 0 1014.7 - 0.0 - - - - - - -
27/09:30pm 23.4 CALM 0 0 1014.7 - 0.0 - - - - - - -
27/09:00pm 24.4 N 1 2 1014.6 - 0.0 - - - - - - -
27/08:30pm 25.1 NNE 1 3 1014.2 - 0.0 - - - - - - -
27/08:00pm 25.6 NNE 2 5 1013.8 - 0.0 - - - - - - -
27/07:30pm 26.1 NNE 2 5 1013.3 - 0.0 - - - - - - -
27/07:00pm 26.9 NE 3 6 1012.7 - 0.0 - - - - - - -
27/06:30pm 28.0 NE 2 6 1012.3 - 0.0 - - - - - - -
27/06:00pm 29.0 NNE 4 6 1012.0 - 0.0 - - - - - - -
27/05:30pm 29.8 NE 5 9 1011.6 - 0.0 - - - - - - -
27/05:00pm 31.2 NE 5 11 1011.3 - 0.0 - - - - - - -
27/04:30pm 31.5 ENE 7 12 1011.2 - 0.0 - - - - - - -
27/04:00pm 32.3 ENE 8 13 1011.5 - 0.0 - - - - - - -
27/03:30pm 32.6 ENE 7 13 1011.5 - 0.0 - - - - - - -
27/03:00pm 31.9 ENE 8 13 1011.9 - 0.0 - - - - - - -
27/02:30pm 32.8 NE 7 15 1012.0 - 0.0 - - - - - - -
27/02:00pm 33.0 NE 7 13 1012.4 - 0.0 - - - - - - -
27/01:30pm 32.4 ENE 7 13 1012.8 - 0.0 - - - - - - -
27/01:00pm 31.6 E 8 15 1013.4 - 0.0 - - - - - - -
27/12:30pm 31.8 ENE 7 13 1013.8 - 0.0 - - - - - - -
27/12:00pm 31.2 ENE 7 10 1014.4 - 0.0 - - - - - - -
27/11:30am 30.9 ENE 8 14 1014.9 - 0.0 - - - - - - -
27/11:00am 30.8 E 8 14 1015.4 - 0.0 - - - - - - -
27/10:30am 29.8 ENE 10 17 1015.5 - 0.0 - - - - - - -
27/10:00am 29.1 ENE 11 21 1015.7 - 0.0 - - - - - - -
27/09:30am 28.6 E 10 19 1015.6 - 0.0 - - - - - - -
27/09:00am 27.5 E 11 18 1015.5 - 0.0 - - - - - - -
27/08:30am 26.6 E 10 16 1015.3 - 0.0 - - - - - - -
27/08:00am 26.0 E 7 13 1015.2 - 0.0 - - - - - - -
27/07:30am 25.5 ENE 6 9 1014.9 - 0.0 - - - - - - -
27/07:00am 24.9 E 5 10 1014.7 - 0.0 - - - - - - -
27/06:30am 24.5 E 4 7 1014.6 - 0.0 - - - - - - -
27/06:00am 24.2 ESE 1 2 1014.2 - 0.0 - - - - - - -
27/05:30am 24.5 E 2 4 1013.9 - 0.0 - - - - - - -
27/05:00am 24.6 ESE 1 2 1013.6 - 0.0 - - - - - - -
27/04:30am 24.3 SE 2 3 1013.6 - 0.0 - - - - - - -
27/04:00am 24.4 SSE 2 3 1013.7 - 0.0 - - - - - - -
27/03:30am 23.9 CALM 0 0 1013.6 - 0.0 - - - - - - -
27/03:00am 24.5 ESE 1 2 1013.6 - 0.0 - - - - - - -
27/02:30am 24.5 NE 1 3 1013.4 - 0.0 - - - - - - -
27/02:00am 24.4 ENE 1 3 1013.5 - 0.0 - - - - - - -
27/01:30am 24.6 ENE 1 2 1013.7 - 0.0 - - - - - - -
27/01:00am 24.8 NE 1 3 1013.8 - 0.0 - - - - - - -
27/12:30am 24.9 NE 2 4 1013.9 - 0.0 - - - - - - -
27/12:00am 25.1 NE 3 5 1014.0 - 0.0 - - - - - - -
 
Date/Time
CST
Temp
°C
Wind Pressure Rain since
9am
mm
Weather Cloud Vis
km
Sea
Height
m
Swell
Dir  Spd
kts
Gust
kts
hPa Trend Height
m
Period
s
Dir
26/11:30pm 25.3 NE 4 6 1014.0 - 0.0 - - - - - - -
26/11:00pm 25.4 NE 4 6 1014.1 - 0.0 - - - - - - -
26/10:30pm 25.6 ENE 4 6 1013.9 - 0.0 - - - - - - -
26/10:00pm 25.6 NE 4 6 1013.6 - 0.0 - - - - - - -
26/09:30pm 26.0 ENE 4 6 1013.6 - 0.0 - - - - - - -
26/09:00pm 26.4 NE 5 9 1013.4 - 0.0 - - - - - - -
26/08:30pm 26.5 NE 5 9 1013.1 - 0.0 - - - - - - -
26/08:00pm 26.7 NE 5 8 1012.7 - 0.0 - - - - - - -
26/07:30pm 27.1 NE 5 9 1012.3 - 0.0 - - - - - - -
26/07:00pm 27.5 NE 6 10 1011.9 - 0.0 - - - - - - -
26/06:30pm 28.0 NE 6 9 1011.5 - 0.0 - - - - - - -
26/06:00pm 28.5 NNE 6 12 1011.3 - 0.0 - - - - - - -
26/05:30pm 29.3 NE 8 15 1011.0 - 0.0 - - - - - - -
26/05:00pm 30.3 NE 7 14 1010.8 - 0.0 - - - - - - -
26/04:30pm 30.5 NNE 8 17 1010.5 - 0.0 - - - - - - -
26/04:00pm 30.8 NE 9 14 1010.6 - 0.0 - - - - - - -
26/03:30pm 31.3 NE 10 17 1010.6 - 0.0 - - - - - - -
26/03:00pm 31.0 ENE 10 16 1010.7 - 0.0 - - - - - - -
26/02:30pm 31.7 ENE 13 16 1011.3 - 0.0 - - - - - - -
26/02:00pm 32.6 ENE 9 18 1011.5 - 0.0 - - - - - - -
26/01:30pm 31.9 NE 7 14 1012.0 - 0.0 - - - - - - -
26/01:00pm 30.7 NE 8 16 1012.3 - 0.0 - - - - - - -
26/12:30pm 30.9 NE 8 14 1012.6 - 0.0 - - - - - - -
26/12:00pm 30.9 ENE 9 17 1012.9 - 0.0 - - - - - - -
26/11:30am 30.9 ENE 8 15 1013.2 - 0.0 - - - - - - -
26/11:00am 31.8 ENE 7 12 1013.5 - 0.0 - - - - - - -
26/10:30am 31.1 E 6 10 1013.5 - 0.0 - - - - - - -
26/10:00am 29.2 ESE 6 9 1013.5 - 0.0 - - - - - - -
26/09:30am 28.7 ESE 6 9 1013.5 - 0.0 - - - - - - -
26/09:00am 27.5 SE 4 7 1013.4 - 0.0 - - - - - - -
26/08:30am 25.6 SE 2 3 1013.2 - 0.0 - - - - - - -
26/08:00am 24.6 NE 1 1 1013.0 - 0.0 - - - - - - -
26/07:30am 22.3 CALM 0 0 1012.7 - 0.0 - - - - - - -
26/07:00am 22.1 CALM 0 0 1012.3 - 0.0 - - - - - - -
26/06:30am 22.6 CALM 0 0 1012.0 - 0.0 - - - - - - -
26/06:00am 22.8 CALM 0 0 1012.0 - 0.0 - - - - - - -
26/05:30am 22.8 NE 1 2 1011.8 - 0.0 - - - - - - -
26/05:00am 22.9 CALM 0 0 1011.6 - 0.0 - - - - - - -
26/04:30am 23.0 CALM 0 0 1011.5 - 0.0 - - - - - - -
26/04:00am 22.5 CALM 0 1 1011.5 - 0.0 - - - - - - -
26/03:30am 21.7 NE 1 2 1011.4 - 0.0 - - - - - - -
26/03:00am 21.0 CALM 0 0 1011.4 - 0.0 - - - - - - -
26/02:30am 21.2 CALM 0 0 1011.4 - 0.0 - - - - - - -
26/02:00am 21.4 CALM 0 0 1011.5 - 0.0 - - - - - - -
26/01:30am 21.6 ENE 1 1 1011.6 - 0.0 - - - - - - -
26/01:00am 22.0 CALM 0 0 1011.7 - 0.0 - - - - - - -
26/12:30am 22.1 CALM 0 0 1011.9 - 0.0 - - - - - - -
26/12:00am 22.3 NE 1 2 1011.9 - 0.0 - - - - - - -
 
Date/Time
CST
Temp
°C
Wind Pressure Rain since
9am
mm
Weather Cloud Vis
km
Sea
Height
m
Swell
Dir  Spd
kts
Gust
kts
hPa Trend Height
m
Period
s
Dir
25/11:30pm 22.8 CALM 0 0 1011.9 - 0.0 - - - - - - -
25/11:00pm 23.1 CALM 0 0 1011.8 - 0.0 - - - - - - -
25/10:30pm 23.5 CALM 0 0 1011.7 - 0.0 - - - - - - -
25/10:00pm 23.9 ENE 1 2 1011.7 - 0.0 - - - - - - -
25/09:30pm 24.3 CALM 0 2 1011.5 - 0.0 - - - - - - -
25/09:00pm 25.3 CALM 0 0 1011.2 - 0.0 - - - - - - -
25/08:30pm 27.4 SSW 5 6 1010.9 - 0.0 - - - - - - -

Other Formats:

Comma delimited format used in spreadsheet applications
http://www.bom.gov.au/fwo/IDD60701/IDD60701.94119.axf

JavaScript Object Notation format (JSON) in row-major order
http://www.bom.gov.au/fwo/IDD60701/IDD60701.94119.json